Aeroporto :
LOGIN :

Iscrizione | Disclaimer

   EN    FR    IT 

 










Sommario :    VFR   VFR Marginale   IFR   IFR Intensivo   IFR Molto Intensivo
Visibilità : 
Base nubi : 
>= 8 km
>= 3000ft
5 / 8 km
1000 / 3000 ft
1500m / 5 km
500 / 1000 ft
800 / 1500m
200 / 500 ft
< 800m
< 200 ft
Simboli :   Temporali  Nebbia  Neve Forte  Precipitazioni Forti  Vento > 20 kt
SIGMETs :   Varie  Temporali  Ghiacco  Turbolenza  Onda orograficha  Ceneri Vulcaniche






- Altitudine del aeroporto : 485 ft
- Codice IATA : QSA


LELL - Sabadell

ULTIMO METAR :
  • 190100Z AUTO 03006KT 340V070 9999 FEW020 SCT026 OVC037 10/06 Q1019

METARs OBSOLETI :
  • 190030Z AUTO 03006KT 340V070 9999 FEW016 BKN038 10/06 Q1020
  • 190000Z AUTO 04005KT 350V080 9999 SCT017 SCT029 OVC034 10/06 Q1020
  • 182330Z AUTO 03003KT 330V100 9999 SCT016 BKN025 OVC031 10/06 Q1020
  • 182300Z AUTO VRB02KT 9999 FEW017 BKN025 OVC030 10/06 Q1020
  • 182230Z AUTO 00000KT 9999 OVC023 09/07 Q1020
  • 182200Z AUTO 00000KT 9999 OVC022 09/07 Q1021

TAF TAF LELL
Valido dal 18 a 15 ore il 19 a 15 ore UTC


181400Z 1815/1915 25005KT 9999 FEW040 TX11/1913Z TN04/1906Z
BECMG 1904/1906 04010KT
TEMPO 1910/1915 04014G24KT
PROB30
TEMPO 1904/1915 4000 RA BKN025 FEW030TCU



MetMap, La meteo Aeronautica in un colpo d'occhio ! - Copyright ORBIFLY Dicembre 2007 - Disclaimer

ORBIFLY MET'MAP TEAM :

Programmazione e sviluppo : Alexandra Zaïnal
Concezione : Baudouin d'Aumeries
Aiuto per la programmazione : Marc-Olivier Méhu
Supporto tecnico e logistico : Manuel Goepfert
Aiuto per la traduzione : Arnaldo La Scala

Contatto : metmap@orbifly.com




FONTI E CREDITI :

   NOAA